createdAt,value
2022-08-27T00:00:37.700Z,20.92
2022-08-27T00:03:09.088Z,20.91
2022-08-27T00:05:41.213Z,20.89
2022-08-27T00:08:13.569Z,20.86
2022-08-27T00:10:45.008Z,20.85
2022-08-27T00:13:16.505Z,20.82
2022-08-27T00:15:48.209Z,20.78
2022-08-27T00:18:22.803Z,20.63
2022-08-27T00:20:54.348Z,20.66
2022-08-27T00:23:25.762Z,20.83
2022-08-27T00:25:59.221Z,20.87
2022-08-27T00:28:31.927Z,20.68
2022-08-27T00:31:03.570Z,20.85
2022-08-27T00:33:36.753Z,20.81
2022-08-27T00:36:09.233Z,20.74
2022-08-27T00:38:41.835Z,20.76
2022-08-27T00:41:13.595Z,20.75
2022-08-27T00:43:58.255Z,20.74
2022-08-27T00:46:49.663Z,20.75
2022-08-27T00:49:26.392Z,20.75
2022-08-27T00:52:08.469Z,20.61
2022-08-27T00:54:39.841Z,20.71
2022-08-27T00:57:13.758Z,20.72
2022-08-27T00:59:45.464Z,20.77
2022-08-27T01:02:19.732Z,20.71
2022-08-27T01:04:56.120Z,20.59
2022-08-27T01:07:30.992Z,20.75
2022-08-27T01:10:07.152Z,20.75
2022-08-27T01:12:38.791Z,20.73
2022-08-27T01:15:16.917Z,20.73
2022-08-27T01:17:52.526Z,20.72
2022-08-27T01:20:48.989Z,20.68
2022-08-27T01:23:38.662Z,20.73
2022-08-27T01:26:14.648Z,20.48
2022-08-27T01:28:48.310Z,20.72
2022-08-27T01:31:20.223Z,20.70
2022-08-27T01:34:03.169Z,20.66
2022-08-27T01:36:34.540Z,20.65
2022-08-27T01:39:06.162Z,20.59
2022-08-27T01:41:37.543Z,20.58
2022-08-27T01:44:08.941Z,20.53
2022-08-27T01:46:40.579Z,20.52
2022-08-27T01:49:12.012Z,20.53
2022-08-27T01:51:43.636Z,20.50
2022-08-27T01:54:15.092Z,20.45
2022-08-27T01:56:46.685Z,20.46
2022-08-27T01:59:18.164Z,20.39
2022-08-27T02:01:50.315Z,20.37
2022-08-27T02:04:22.374Z,20.28
2022-08-27T02:06:54.578Z,20.24
2022-08-27T02:09:26.281Z,20.24
2022-08-27T02:11:57.900Z,20.28
2022-08-27T02:14:29.801Z,20.34
2022-08-27T02:17:01.650Z,20.31
2022-08-27T02:19:33.062Z,20.32
2022-08-27T02:22:04.553Z,20.39
2022-08-27T02:24:35.893Z,20.40
2022-08-27T02:27:07.876Z,20.41
2022-08-27T02:29:39.436Z,20.34
2022-08-27T02:32:23.879Z,20.20
2022-08-27T02:35:04.468Z,20.14
2022-08-27T02:37:37.884Z,20.06
2022-08-27T02:40:11.131Z,19.99
2022-08-27T02:42:43.792Z,19.87
2022-08-27T02:45:16.258Z,19.81
2022-08-27T02:47:48.470Z,19.77
2022-08-27T02:50:19.891Z,19.75
2022-08-27T02:52:51.264Z,19.75
2022-08-27T02:55:22.929Z,19.56
2022-08-27T02:57:54.864Z,19.73
2022-08-27T03:00:28.616Z,19.71
2022-08-27T03:03:01.133Z,19.66
2022-08-27T03:05:32.580Z,19.64
2022-08-27T03:08:05.518Z,19.43
2022-08-27T03:10:36.897Z,19.59
2022-08-27T03:13:09.021Z,19.65
2022-08-27T03:15:40.391Z,19.68
2022-08-27T03:18:21.531Z,19.66
2022-08-27T03:20:55.601Z,19.64
2022-08-27T03:23:29.470Z,19.38
2022-08-27T03:26:09.473Z,19.65
2022-08-27T03:28:40.945Z,19.65
2022-08-27T03:31:20.553Z,19.61
2022-08-27T03:33:56.696Z,19.54
2022-08-27T03:36:29.911Z,19.38
2022-08-27T03:39:01.374Z,19.52
2022-08-27T03:41:53.994Z,19.43
2022-08-27T03:44:24.414Z,19.39
2022-08-27T03:46:55.790Z,19.23
2022-08-27T03:49:27.117Z,19.20
2022-08-27T03:51:58.826Z,19.31
2022-08-27T03:54:31.673Z,19.35
2022-08-27T03:57:03.753Z,19.35
2022-08-27T03:59:35.915Z,19.34
2022-08-27T04:02:07.357Z,19.28
2022-08-27T04:04:38.953Z,19.34
2022-08-27T04:07:10.519Z,19.32
2022-08-27T04:09:42.427Z,19.23
2022-08-27T04:12:13.817Z,19.22
2022-08-27T04:14:45.372Z,19.23
2022-08-27T04:17:16.819Z,19.26
2022-08-27T04:19:48.325Z,19.13
2022-08-27T04:22:20.428Z,19.29
2022-08-27T04:24:51.782Z,19.32
2022-08-27T04:27:25.518Z,19.23
2022-08-27T04:29:58.393Z,19.28
2022-08-27T04:32:29.988Z,19.21
2022-08-27T04:35:01.516Z,19.29
2022-08-27T04:37:33.297Z,19.23
2022-08-27T04:40:05.036Z,19.27
2022-08-27T04:42:36.521Z,19.06
2022-08-27T04:45:08.486Z,19.06
2022-08-27T04:47:39.954Z,19.24
2022-08-27T04:50:11.351Z,19.09
2022-08-27T04:52:44.747Z,19.23
2022-08-27T04:55:16.199Z,19.25
2022-08-27T04:57:47.611Z,19.23
2022-08-27T05:00:19.248Z,19.23
2022-08-27T05:02:50.622Z,19.23
2022-08-27T05:05:23.635Z,19.27
2022-08-27T05:07:55.063Z,19.27
2022-08-27T05:10:26.427Z,19.34
2022-08-27T05:12:59.916Z,19.37
2022-08-27T05:15:31.576Z,19.40
2022-08-27T05:18:04.321Z,19.43
2022-08-27T05:20:46.670Z,19.42
2022-08-27T05:23:20.627Z,19.48
2022-08-27T05:25:53.865Z,19.48
2022-08-27T05:28:28.482Z,19.48
2022-08-27T05:31:06.824Z,19.51
2022-08-27T05:33:40.516Z,19.53
2022-08-27T05:36:21.654Z,19.54
2022-08-27T05:38:55.449Z,19.57
2022-08-27T05:41:34.240Z,19.57
2022-08-27T05:44:30.277Z,19.55
2022-08-27T05:47:00.755Z,19.54
2022-08-27T05:49:32.386Z,19.59
2022-08-27T05:52:08.218Z,19.51
2022-08-27T05:54:39.929Z,19.68
2022-08-27T05:57:11.446Z,19.66
2022-08-27T06:00:01.647Z,19.73
2022-08-27T06:02:37.146Z,19.77
2022-08-27T06:05:08.767Z,19.77
2022-08-27T06:07:40.185Z,19.78
2022-08-27T06:10:12.024Z,19.71
2022-08-27T06:12:43.395Z,19.84
2022-08-27T06:15:15.035Z,19.85
2022-08-27T06:17:46.374Z,19.87
2022-08-27T06:20:18.413Z,19.84
2022-08-27T06:22:49.893Z,19.82
2022-08-27T06:25:21.238Z,19.80
2022-08-27T06:27:52.640Z,19.85
2022-08-27T06:30:24.112Z,19.89
2022-08-27T06:32:55.562Z,19.89
2022-08-27T06:35:29.275Z,19.90
2022-08-27T06:38:02.555Z,19.90
2022-08-27T06:40:34.693Z,19.73
2022-08-27T06:43:06.279Z,19.98
2022-08-27T06:45:39.132Z,20.03
2022-08-27T06:48:10.616Z,20.07
2022-08-27T06:50:43.534Z,20.07
2022-08-27T06:53:15.058Z,20.11
2022-08-27T06:55:48.556Z,20.14
2022-08-27T06:58:20.258Z,20.09
2022-08-27T07:00:51.704Z,20.10
2022-08-27T07:03:23.103Z,20.06
2022-08-27T07:05:54.631Z,20.04
2022-08-27T07:08:26.098Z,20.10
2022-08-27T07:10:57.663Z,20.06
2022-08-27T07:13:30.076Z,20.03
2022-08-27T07:16:23.411Z,20.05
2022-08-27T07:18:59.457Z,20.05
2022-08-27T07:21:35.997Z,20.00
2022-08-27T07:24:09.001Z,19.97
2022-08-27T07:26:43.297Z,19.94
2022-08-27T07:29:15.258Z,19.95
2022-08-27T07:31:46.956Z,19.82
2022-08-27T07:34:18.314Z,19.98
2022-08-27T07:36:51.282Z,19.88
2022-08-27T07:39:22.607Z,20.01
2022-08-27T07:42:15.375Z,20.04
2022-08-27T07:44:46.784Z,19.90
2022-08-27T07:47:18.489Z,19.92
2022-08-27T07:49:50.149Z,20.00
2022-08-27T07:52:25.915Z,20.06
2022-08-27T07:54:58.289Z,20.05
2022-08-27T07:57:31.655Z,20.06
2022-08-27T08:00:04.800Z,20.04
2022-08-27T08:02:37.255Z,19.95
2022-08-27T08:05:09.969Z,20.10
2022-08-27T08:07:41.484Z,20.14
2022-08-27T08:10:12.992Z,20.20
2022-08-27T08:12:44.347Z,20.04
2022-08-27T08:15:17.313Z,20.35
2022-08-27T08:17:48.674Z,20.42
2022-08-27T08:20:31.256Z,20.49
2022-08-27T08:23:11.498Z,20.43
2022-08-27T08:25:42.965Z,20.49
2022-08-27T08:28:14.362Z,20.56
2022-08-27T08:30:47.631Z,20.46
2022-08-27T08:33:19.073Z,20.63
2022-08-27T08:35:50.553Z,20.70
2022-08-27T08:38:22.062Z,20.76
2022-08-27T08:40:55.276Z,20.83
2022-08-27T08:43:36.438Z,20.70
2022-08-27T08:46:17.186Z,20.98
2022-08-27T08:48:55.396Z,20.88
2022-08-27T08:51:32.726Z,20.78
2022-08-27T08:54:10.710Z,20.52
2022-08-27T08:57:01.093Z,20.65
2022-08-27T08:59:39.184Z,20.73
2022-08-27T09:02:14.534Z,20.72
2022-08-27T09:04:45.887Z,20.54
2022-08-27T09:07:34.456Z,20.68
2022-08-27T09:10:27.014Z,20.70
2022-08-27T09:13:07.998Z,20.74
2022-08-27T09:15:39.648Z,20.79
2022-08-27T09:18:14.749Z,20.56
2022-08-27T09:20:51.349Z,20.76
2022-08-27T09:23:31.016Z,20.72
2022-08-27T09:26:02.437Z,20.74
2022-08-27T09:28:52.604Z,20.68
2022-08-27T09:31:24.023Z,20.64
2022-08-27T09:33:57.219Z,20.60
2022-08-27T09:36:28.717Z,20.58
2022-08-27T09:39:04.223Z,20.45
2022-08-27T09:41:42.834Z,20.61
2022-08-27T09:44:18.624Z,20.65
2022-08-27T09:47:00.381Z,20.68
2022-08-27T09:49:36.593Z,20.61
2022-08-27T09:52:10.023Z,20.74
2022-08-27T09:54:46.498Z,20.65
2022-08-27T09:57:38.075Z,20.73
2022-08-27T10:00:16.131Z,20.89
2022-08-27T10:02:53.372Z,20.89
2022-08-27T10:05:32.160Z,20.95
2022-08-27T10:08:21.923Z,20.82
2022-08-27T10:11:00.756Z,21.16
2022-08-27T10:13:39.406Z,21.06
2022-08-27T10:16:52.350Z,21.21
2022-08-27T10:19:46.862Z,21.05
2022-08-27T10:22:31.903Z,21.02
2022-08-27T10:25:28.858Z,21.01
2022-08-27T10:28:36.756Z,20.99
2022-08-27T10:31:26.423Z,20.82
2022-08-27T10:34:21.030Z,20.96
2022-08-27T10:37:19.960Z,21.00
2022-08-27T10:40:04.472Z,21.02
2022-08-27T10:42:43.889Z,21.00
2022-08-27T10:45:39.344Z,21.01
2022-08-27T10:48:19.462Z,20.99
2022-08-27T10:51:08.887Z,20.88
2022-08-27T10:53:50.202Z,21.12
2022-08-27T10:57:03.637Z,21.28
2022-08-27T10:59:56.153Z,21.40
2022-08-27T11:02:37.266Z,21.48
2022-08-27T11:05:19.750Z,21.54
2022-08-27T11:08:05.149Z,21.53
2022-08-27T11:10:42.136Z,21.44
2022-08-27T11:13:22.148Z,21.52
2022-08-27T11:15:56.569Z,21.48
2022-08-27T11:18:42.426Z,21.45
2022-08-27T11:21:36.608Z,21.49
2022-08-27T11:24:33.103Z,21.50
2022-08-27T11:27:08.047Z,21.33
2022-08-27T11:29:49.562Z,21.46
2022-08-27T11:32:27.647Z,21.47
2022-08-27T11:35:19.778Z,21.44
2022-08-27T11:38:03.272Z,21.46
2022-08-27T11:40:55.435Z,21.48
2022-08-27T11:43:33.367Z,21.58
2022-08-27T11:46:08.529Z,21.66
2022-08-27T11:48:43.296Z,21.77
2022-08-27T11:51:34.052Z,21.76
2022-08-27T11:54:44.219Z,21.75
2022-08-27T11:57:39.177Z,21.77
2022-08-27T12:00:18.822Z,21.91
2022-08-27T12:02:58.970Z,22.03
2022-08-27T12:05:45.477Z,22.12
2022-08-27T12:08:22.737Z,22.27
2022-08-27T12:11:03.659Z,22.48
2022-08-27T12:13:50.540Z,22.71
2022-08-27T12:16:40.740Z,22.98
2022-08-27T12:19:33.177Z,23.20
2022-08-27T12:22:26.063Z,23.21
2022-08-27T12:24:59.000Z,23.46
2022-08-27T12:27:34.342Z,23.46
2022-08-27T12:30:21.030Z,23.74
2022-08-27T12:32:54.363Z,23.73
2022-08-27T12:35:32.569Z,23.81
2022-08-27T12:38:16.264Z,23.96
2022-08-27T12:40:53.947Z,24.11
2022-08-27T12:43:28.281Z,24.22
2022-08-27T12:46:19.231Z,24.37
2022-08-27T12:48:57.934Z,24.74
2022-08-27T12:51:37.981Z,24.81
2022-08-27T12:54:51.461Z,25.02
2022-08-27T12:57:36.767Z,25.28
2022-08-27T13:00:26.351Z,25.44
2022-08-27T13:03:16.642Z,25.39
2022-08-27T13:05:50.441Z,25.10
2022-08-27T13:08:28.300Z,25.21
2022-08-27T13:11:30.917Z,25.44
2022-08-27T13:14:19.868Z,25.46
2022-08-27T13:16:59.354Z,25.33
2022-08-27T13:19:34.190Z,25.28
2022-08-27T13:22:07.042Z,25.45
2022-08-27T13:24:47.844Z,25.58
2022-08-27T13:27:31.597Z,25.74
2022-08-27T13:30:10.946Z,25.98
2022-08-27T13:32:50.744Z,26.06
2022-08-27T13:35:23.072Z,26.15
2022-08-27T13:37:55.688Z,26.31
2022-08-27T13:40:34.435Z,26.45
2022-08-27T13:43:12.072Z,26.34
2022-08-27T13:45:49.576Z,26.21
2022-08-27T13:48:22.405Z,26.10
2022-08-27T13:50:57.576Z,25.97
2022-08-27T13:53:50.289Z,26.01
2022-08-27T13:56:27.614Z,26.12
2022-08-27T13:59:19.124Z,26.07
2022-08-27T14:02:10.969Z,25.79
2022-08-27T14:05:27.967Z,25.53
2022-08-27T14:08:13.731Z,25.30
2022-08-27T14:10:49.794Z,25.20
2022-08-27T14:13:24.016Z,25.11
2022-08-27T14:15:57.614Z,25.17
2022-08-27T14:18:57.237Z,25.13
2022-08-27T14:21:24.158Z,24.97
2022-08-27T14:23:56.176Z,24.90
2022-08-27T14:26:27.807Z,24.81
2022-08-27T14:28:59.221Z,25.03
2022-08-27T14:31:31.223Z,25.20
2022-08-27T14:34:02.732Z,25.32
2022-08-27T14:36:37.152Z,25.18
2022-08-27T14:39:10.190Z,25.18
2022-08-27T14:41:41.641Z,25.06
2022-08-27T14:44:13.404Z,24.86
2022-08-27T14:46:44.812Z,24.72
2022-08-27T14:49:30.469Z,24.64
2022-08-27T14:52:04.177Z,24.33
2022-08-27T14:54:37.212Z,24.33
2022-08-27T14:57:09.006Z,24.23
2022-08-27T14:59:40.399Z,24.15
2022-08-27T15:02:13.883Z,24.17
2022-08-27T15:04:47.842Z,24.06
2022-08-27T15:07:19.836Z,24.26
2022-08-27T15:09:55.327Z,24.32
2022-08-27T15:12:27.128Z,24.44
2022-08-27T15:14:58.631Z,24.18
2022-08-27T15:17:34.357Z,24.14
2022-08-27T15:20:10.265Z,23.99
2022-08-27T15:22:52.181Z,23.72
2022-08-27T15:25:23.601Z,23.81
2022-08-27T15:27:54.985Z,23.70
2022-08-27T15:30:28.833Z,23.55
2022-08-27T15:33:00.178Z,23.55
2022-08-27T15:35:31.617Z,23.66
2022-08-27T15:38:03.209Z,23.95
2022-08-27T15:40:36.357Z,23.97
2022-08-27T15:43:08.208Z,24.03
2022-08-27T15:45:39.558Z,24.02
2022-08-27T15:48:11.034Z,24.00
2022-08-27T15:50:43.118Z,23.79
2022-08-27T15:53:14.846Z,23.87
2022-08-27T15:55:46.179Z,23.81
2022-08-27T15:58:17.508Z,23.75
2022-08-27T16:00:48.956Z,23.58
2022-08-27T16:03:35.767Z,23.68
2022-08-27T16:06:08.787Z,23.53
2022-08-27T16:08:42.304Z,23.43
2022-08-27T16:11:14.056Z,23.38
2022-08-27T16:13:45.398Z,23.26
2022-08-27T16:16:22.579Z,23.20
2022-08-27T16:18:54.369Z,23.09
2022-08-27T16:21:25.706Z,22.99
2022-08-27T16:23:57.105Z,22.82
2022-08-27T16:26:28.661Z,22.68
2022-08-27T16:29:01.294Z,22.59
2022-08-27T16:31:34.815Z,22.49
2022-08-27T16:34:16.924Z,22.36
2022-08-27T16:36:48.322Z,22.28
2022-08-27T16:39:19.672Z,22.23
2022-08-27T16:41:51.246Z,22.19
2022-08-27T16:44:26.060Z,22.17
2022-08-27T16:46:57.613Z,22.14
2022-08-27T16:49:47.485Z,22.07
2022-08-27T16:52:23.456Z,22.04
2022-08-27T16:54:56.726Z,22.02
2022-08-27T16:57:28.104Z,22.03
2022-08-27T16:59:59.444Z,21.96
2022-08-27T17:02:34.811Z,21.93
2022-08-27T17:05:24.030Z,21.87
2022-08-27T17:07:59.386Z,21.80
2022-08-27T17:10:51.908Z,21.58
2022-08-27T17:13:28.261Z,21.68
2022-08-27T17:16:01.637Z,21.68
2022-08-27T17:18:34.788Z,21.31
2022-08-27T17:21:06.321Z,21.49
2022-08-27T17:23:41.211Z,21.46
2022-08-27T17:26:14.842Z,21.36
2022-08-27T17:28:46.280Z,21.25
2022-08-27T17:31:28.047Z,21.19
2022-08-27T17:34:01.219Z,21.01
2022-08-27T17:36:33.365Z,20.81
2022-08-27T17:39:04.746Z,20.89
2022-08-27T17:41:39.304Z,20.78
2022-08-27T17:44:31.904Z,20.64
2022-08-27T17:47:06.170Z,20.52
2022-08-27T17:49:37.972Z,20.37
2022-08-27T17:52:13.282Z,20.30
2022-08-27T17:54:48.001Z,20.22
2022-08-27T17:57:22.467Z,20.14
2022-08-27T17:59:54.663Z,20.06
2022-08-27T18:02:34.197Z,19.91
2022-08-27T18:05:09.929Z,19.85
2022-08-27T18:07:42.734Z,19.73
2022-08-27T18:10:17.507Z,19.64
2022-08-27T18:12:49.790Z,19.53
2022-08-27T18:15:25.261Z,19.44
2022-08-27T18:17:57.794Z,19.32
2022-08-27T18:20:30.629Z,19.29
2022-08-27T18:23:02.118Z,19.15
2022-08-27T18:25:36.334Z,19.13
2022-08-27T18:28:11.318Z,19.07
2022-08-27T18:30:44.622Z,18.98
2022-08-27T18:33:16.321Z,18.75
2022-08-27T18:35:47.689Z,18.85
2022-08-27T18:38:19.160Z,18.77
2022-08-27T18:40:51.777Z,18.70
2022-08-27T18:43:34.878Z,18.63
2022-08-27T18:46:07.083Z,18.58
2022-08-27T18:48:38.681Z,18.50
2022-08-27T18:51:13.935Z,18.42
2022-08-27T18:53:46.793Z,18.35
2022-08-27T18:56:19.561Z,18.14
2022-08-27T18:58:51.054Z,18.23
2022-08-27T19:01:26.278Z,18.14
2022-08-27T19:03:58.216Z,18.12
2022-08-27T19:06:29.937Z,17.92
2022-08-27T19:09:02.107Z,18.01
2022-08-27T19:11:33.474Z,18.01
2022-08-27T19:14:04.792Z,17.87
2022-08-27T19:16:45.851Z,17.90
2022-08-27T19:19:18.178Z,17.87
2022-08-27T19:21:51.699Z,17.81
2022-08-27T19:24:23.215Z,17.76
2022-08-27T19:26:54.891Z,17.70
2022-08-27T19:29:26.225Z,17.67
2022-08-27T19:34:28.999Z,17.57
2022-08-27T19:37:02.531Z,17.38
2022-08-27T19:39:36.527Z,17.47
2022-08-27T19:42:07.984Z,17.42
2022-08-27T19:44:39.474Z,17.39
2022-08-27T19:47:13.211Z,17.32
2022-08-27T19:49:49.589Z,17.24
2022-08-27T19:52:21.257Z,17.21
2022-08-27T19:55:12.518Z,17.15
2022-08-27T19:57:44.834Z,17.11
2022-08-27T20:00:19.326Z,17.07
2022-08-27T20:02:51.685Z,17.00
2022-08-27T20:05:23.211Z,16.97
2022-08-27T20:07:54.734Z,16.79
2022-08-27T20:10:36.725Z,16.90
2022-08-27T20:13:08.773Z,16.85
2022-08-27T20:15:40.666Z,16.77
2022-08-27T20:18:15.725Z,16.56
2022-08-27T20:20:47.218Z,16.70
2022-08-27T20:23:18.689Z,16.60
2022-08-27T20:25:52.230Z,16.63
2022-08-27T20:28:39.074Z,16.52
2022-08-27T20:31:11.495Z,16.56
2022-08-27T20:33:43.886Z,16.51
2022-08-27T20:36:15.578Z,16.45
2022-08-27T20:38:47.456Z,16.41
2022-08-27T20:41:19.092Z,16.36
2022-08-27T20:43:50.724Z,16.30
2022-08-27T20:46:27.093Z,16.27
2022-08-27T20:48:59.047Z,16.18
2022-08-27T20:51:30.498Z,16.17
2022-08-27T20:54:22.168Z,16.14
2022-08-27T20:56:53.863Z,16.09
2022-08-27T20:59:44.400Z,16.08
2022-08-27T21:02:22.189Z,16.07
2022-08-27T21:04:53.692Z,15.97
2022-08-27T21:07:25.283Z,15.99
2022-08-27T21:09:57.639Z,15.93
2022-08-27T21:12:30.895Z,15.94
2022-08-27T21:15:04.975Z,15.92
2022-08-27T21:17:36.645Z,15.89
2022-08-27T21:20:13.588Z,15.72
2022-08-27T21:22:45.076Z,15.69
2022-08-27T21:25:16.561Z,15.76
2022-08-27T21:27:47.940Z,15.82
2022-08-27T21:30:21.297Z,15.80
2022-08-27T21:32:56.358Z,15.77
2022-08-27T21:35:30.979Z,15.77
2022-08-27T21:38:02.428Z,15.54
2022-08-27T21:40:33.844Z,15.75
2022-08-27T21:43:05.267Z,15.73
2022-08-27T21:45:36.960Z,15.70
2022-08-27T21:48:08.641Z,15.67
2022-08-27T21:50:40.108Z,15.66
2022-08-27T21:53:11.614Z,15.67
2022-08-27T21:55:44.261Z,15.67
2022-08-27T21:58:15.746Z,15.66
2022-08-27T22:00:49.652Z,15.47
2022-08-27T22:03:22.664Z,15.38
2022-08-27T22:05:54.276Z,15.53
2022-08-27T22:08:26.345Z,15.56
2022-08-27T22:10:58.384Z,15.40
2022-08-27T22:13:29.938Z,15.54
2022-08-27T22:16:01.804Z,15.47
2022-08-27T22:18:33.760Z,15.47
2022-08-27T22:21:05.918Z,15.46
2022-08-27T22:23:37.447Z,15.46
2022-08-27T22:26:08.941Z,15.40
2022-08-27T22:28:40.588Z,15.40
2022-08-27T22:31:12.131Z,15.36
2022-08-27T22:33:43.639Z,15.37
2022-08-27T22:36:15.053Z,15.25
2022-08-27T22:38:46.600Z,15.31
2022-08-27T22:41:19.270Z,15.28
2022-08-27T22:43:56.681Z,15.16
2022-08-27T22:46:29.317Z,15.22
2022-08-27T22:49:01.028Z,15.15
2022-08-27T22:51:32.397Z,15.12
2022-08-27T22:54:03.894Z,15.13
2022-08-27T22:56:35.768Z,15.12
2022-08-27T22:59:07.544Z,15.03
2022-08-27T23:01:39.028Z,14.97
2022-08-27T23:04:11.183Z,14.97
2022-08-27T23:06:42.644Z,14.94
2022-08-27T23:09:14.047Z,14.89
2022-08-27T23:11:45.521Z,14.88
2022-08-27T23:14:16.987Z,14.88
2022-08-27T23:16:48.295Z,14.69
2022-08-27T23:19:19.830Z,14.80
2022-08-27T23:21:51.137Z,14.76
2022-08-27T23:24:22.515Z,14.56
2022-08-27T23:27:12.683Z,14.72
2022-08-27T23:29:46.991Z,14.67
2022-08-27T23:32:18.340Z,14.63
2022-08-27T23:34:49.899Z,14.60
2022-08-27T23:37:21.755Z,14.57
2022-08-27T23:39:53.863Z,14.60
2022-08-27T23:42:25.682Z,14.33
2022-08-27T23:44:57.304Z,14.57
2022-08-27T23:47:28.672Z,14.51
2022-08-27T23:50:00.488Z,14.21
2022-08-27T23:52:32.427Z,14.49
2022-08-27T23:55:05.207Z,14.45
2022-08-27T23:57:37.060Z,14.43
